Time,TemperatureF,DewpointF,PressureIn,WindDirection,WindDirectionDegrees,WindSpeedMPH,WindSpeedGustMPH,Humidity,HourlyPrecipIn,Conditions,Clouds,dailyrainin,SolarRadiationWatts/m^2,SoftwareType,DateUTC
2013-03-08 00:00:00,58.0,55.4,30.11,East,90,1.0,5.0,91,0.00,,,0.00,0.00,VWS V14.00,2013-03-08 06:00:00,
2013-03-08 00:15:00,58.2,55.9,30.09,East,90,2.0,5.0,92,0.00,,,0.00,0.00,VWS V14.00,2013-03-08 06:15:00,
2013-03-08 00:30:00,58.4,56.1,30.10,East,90,1.0,4.0,92,0.00,,,0.00,0.00,VWS V14.00,2013-03-08 06:30:00,
2013-03-08 00:45:00,58.6,56.6,30.10,East,90,2.0,4.0,93,0.00,,,0.00,0.00,VWS V14.00,2013-03-08 06:45:00,
2013-03-08 01:00:00,58.7,56.7,30.10,East,90,1.0,4.0,93,0.00,,,0.00,0.00,VWS V14.00,2013-03-08 07:00:00,
2013-03-08 01:15:00,59.3,57.3,30.09,East,90,2.0,6.0,93,0.00,,,0.00,0.00,VWS V14.00,2013-03-08 07:15:00,
2013-03-08 01:30:00,59.4,57.4,30.09,East,90,2.0,6.0,93,0.00,,,0.00,0.00,VWS V14.00,2013-03-08 07:30:00,
2013-03-08 01:45:00,59.5,57.5,30.09,East,90,1.0,3.0,93,0.00,,,0.00,0.00,VWS V14.00,2013-03-08 07:45:00,
2013-03-08 02:00:00,59.5,57.5,30.08,East,90,1.0,5.0,93,0.00,,,0.00,0.00,VWS V14.00,2013-03-08 08:00:00,
2013-03-08 02:15:00,59.4,57.4,30.07,East,90,2.0,5.0,93,0.00,,,0.00,0.00,VWS V14.00,2013-03-08 08:15:00,
2013-03-08 02:30:00,59.3,57.3,30.07,East,90,2.0,6.0,93,0.00,,,0.00,0.00,VWS V14.00,2013-03-08 08:30:00,
2013-03-08 02:45:00,59.3,57.3,30.06,East,90,2.0,5.0,93,0.00,,,0.00,0.00,VWS V14.00,2013-03-08 08:45:00,
2013-03-08 03:00:00,58.9,56.9,30.05,East,90,2.0,5.0,93,0.00,,,0.00,0.00,VWS V14.00,2013-03-08 09:00:00,
2013-03-08 03:15:00,58.9,56.9,30.05,East,90,2.0,5.0,93,0.00,,,0.00,0.00,VWS V14.00,2013-03-08 09:15:00,
2013-03-08 03:37:00,59.2,57.2,30.04,East,90,2.0,5.0,93,0.00,,,0.00,0.00,VWS V14.00,2013-03-08 09:37:00,
2013-03-08 03:45:00,59.3,57.6,30.05,ESE,102,1.0,4.0,94,0.00,,,0.00,0.00,VWS V14.00,2013-03-08 09:45:00,
2013-03-08 04:00:00,59.6,57.9,30.04,East,90,2.0,4.0,94,0.00,,,0.00,0.00,VWS V14.00,2013-03-08 10:00:00,
2013-03-08 04:15:00,59.7,58.0,30.04,East,95,1.0,6.0,94,0.00,,,0.00,0.00,VWS V14.00,2013-03-08 10:15:00,
2013-03-08 04:30:00,59.4,57.4,30.04,East,90,1.0,5.0,93,0.00,,,0.00,0.00,VWS V14.00,2013-03-08 10:30:00,
2013-03-08 04:45:00,59.6,57.9,30.04,East,90,2.0,6.0,94,0.00,,,0.00,0.00,VWS V14.00,2013-03-08 10:45:00,
2013-03-08 05:00:00,59.7,58.0,30.04,East,90,1.0,6.0,94,0.00,,,0.00,0.00,VWS V14.00,2013-03-08 11:00:00,
2013-03-08 05:15:00,60.1,58.4,30.05,East,90,1.0,5.0,94,0.00,,,0.00,0.00,VWS V14.00,2013-03-08 11:15:00,
2013-03-08 05:30:00,60.0,58.3,30.05,East,90,1.0,4.0,94,0.00,,,0.00,0.00,VWS V14.00,2013-03-08 11:30:00,
2013-03-08 05:45:00,59.8,58.1,30.05,East,90,2.0,5.0,94,0.00,,,0.00,0.00,VWS V14.00,2013-03-08 11:45:00,
2013-03-08 06:00:00,60.1,58.4,30.05,East,90,2.0,4.0,94,0.00,,,0.00,0.00,VWS V14.00,2013-03-08 12:00:00,
2013-03-08 06:15:00,60.3,58.6,30.05,ESE,112,1.0,5.0,94,0.00,,,0.00,0.00,VWS V14.00,2013-03-08 12:15:00,
2013-03-08 06:30:00,60.7,59.0,30.06,ESE,112,2.0,5.0,94,0.00,,,0.00,0.00,VWS V14.00,2013-03-08 12:30:00,
2013-03-08 06:45:00,60.8,59.1,30.06,ESE,112,2.0,5.0,94,0.00,,,0.00,0.00,VWS V14.00,2013-03-08 12:45:00,
2013-03-08 07:00:00,60.9,59.2,30.06,East,90,1.0,4.0,94,0.00,,,0.00,6.00,VWS V14.00,2013-03-08 13:00:00,
2013-03-08 07:15:00,61.2,59.5,30.07,East,90,1.0,5.0,94,0.00,,,0.00,13.00,VWS V14.00,2013-03-08 13:15:00,
2013-03-08 07:30:00,61.5,59.8,30.08,East,90,1.0,4.0,94,0.00,,,0.00,11.00,VWS V14.00,2013-03-08 13:30:00,
2013-03-08 07:45:00,61.7,60.0,30.08,East,90,1.0,4.0,94,0.00,,,0.00,32.00,VWS V14.00,2013-03-08 13:45:00,
2013-03-08 08:00:00,62.2,60.5,30.08,East,90,2.0,5.0,94,0.00,,,0.00,50.00,VWS V14.00,2013-03-08 14:00:00,
2013-03-08 08:15:00,62.8,61.0,30.08,ESE,112,3.0,6.0,94,0.00,,,0.00,56.00,VWS V14.00,2013-03-08 14:15:00,
2013-03-08 08:30:00,63.6,61.8,30.08,ESE,112,3.0,7.0,94,0.00,,,0.00,57.00,VWS V14.00,2013-03-08 14:30:00,
2013-03-08 08:45:00,64.2,62.1,30.09,East,90,3.0,9.0,93,0.00,,,0.00,60.00,VWS V14.00,2013-03-08 14:45:00,
2013-03-08 09:00:00,64.8,62.4,30.09,ESE,112,3.0,7.0,92,0.00,,,0.00,84.00,VWS V14.00,2013-03-08 15:00:00,
2013-03-08 09:15:00,65.5,62.8,30.10,East,90,4.0,9.0,91,0.00,,,0.00,117.00,VWS V14.00,2013-03-08 15:15:00,
2013-03-08 09:30:00,66.0,63.0,30.10,ESE,112,4.0,10.0,90,0.00,,,0.00,149.00,VWS V14.00,2013-03-08 15:30:00,
2013-03-08 09:45:00,66.4,63.1,30.10,East,90,5.0,11.0,89,0.00,,,0.00,160.00,VWS V14.00,2013-03-08 15:45:00,
2013-03-08 10:00:00,66.8,63.5,30.10,East,90,5.0,12.0,89,0.00,,,0.00,181.00,VWS V14.00,2013-03-08 16:00:00,
2013-03-08 10:15:00,67.1,63.4,30.10,ESE,112,5.0,12.0,88,0.00,,,0.00,157.00,VWS V14.00,2013-03-08 16:15:00,
2013-03-08 10:30:00,67.7,63.7,30.10,East,90,5.0,12.0,87,0.00,,,0.00,224.00,VWS V14.00,2013-03-08 16:30:00,
2013-03-08 10:45:00,68.6,64.2,30.10,ESE,112,6.0,13.0,86,0.00,,,0.00,310.00,VWS V14.00,2013-03-08 16:45:00,
2013-03-08 11:00:00,68.9,64.2,30.10,East,90,6.0,14.0,85,0.00,,,0.00,272.00,VWS V14.00,2013-03-08 17:00:00,
2013-03-08 11:15:00,69.1,64.1,30.10,East,90,6.0,13.0,84,0.00,,,0.00,263.00,VWS V14.00,2013-03-08 17:15:00,
2013-03-08 11:30:00,69.0,64.0,30.10,East,90,6.0,15.0,84,0.00,,,0.00,222.00,VWS V14.00,2013-03-08 17:30:00,
2013-03-08 11:45:00,69.3,64.3,30.10,East,90,6.0,14.0,84,0.00,,,0.00,281.00,VWS V14.00,2013-03-08 17:45:00,
2013-03-08 12:00:00,70.3,64.6,30.10,ESE,112,6.0,12.0,82,0.00,,,0.00,499.00,VWS V14.00,2013-03-08 18:00:00,
2013-03-08 12:15:00,70.1,64.4,30.08,East,90,7.0,13.0,82,0.00,,,0.00,371.00,VWS V14.00,2013-03-08 18:15:00,
2013-03-08 12:30:00,70.9,64.4,30.08,East,90,7.0,15.0,80,0.00,,,0.00,468.00,VWS V14.00,2013-03-08 18:30:00,
2013-03-08 12:45:00,71.2,64.7,30.07,East,90,8.0,17.0,80,0.00,,,0.00,518.00,VWS V14.00,2013-03-08 18:45:00,
2013-03-08 13:00:00,70.5,64.0,30.06,ESE,112,8.0,16.0,80,0.00,,,0.00,280.00,VWS V14.00,2013-03-08 19:00:00,
2013-03-08 13:15:00,70.8,64.3,30.05,East,90,8.0,14.0,80,0.00,,,0.00,409.00,VWS V14.00,2013-03-08 19:15:00,
2013-03-08 13:30:00,70.7,64.2,30.04,East,90,8.0,17.0,80,0.00,,,0.00,379.00,VWS V14.00,2013-03-08 19:30:00,
2013-03-08 13:45:00,70.7,64.2,30.03,East,90,8.0,17.0,80,0.00,,,0.00,390.00,VWS V14.00,2013-03-08 19:45:00,
2013-03-08 14:00:00,72.0,64.4,30.02,East,90,8.0,16.0,77,0.00,,,0.00,675.00,VWS V14.00,2013-03-08 20:00:00,
2013-03-08 14:15:00,71.0,63.8,30.02,ESE,112,8.0,20.0,78,0.00,,,0.00,371.00,VWS V14.00,2013-03-08 20:15:00,
2013-03-08 14:30:00,70.0,63.2,30.02,ESE,112,8.0,17.0,79,0.00,,,0.00,257.00,VWS V14.00,2013-03-08 20:30:00,
2013-03-08 14:45:00,70.1,63.3,30.02,East,90,7.0,15.0,79,0.00,,,0.00,314.00,VWS V14.00,2013-03-08 20:45:00,
2013-03-08 15:00:00,70.0,63.2,30.02,East,90,7.0,16.0,79,0.00,,,0.00,285.00,VWS V14.00,2013-03-08 21:00:00,
2013-03-08 15:15:00,69.9,63.8,30.02,East,90,7.0,16.0,81,0.00,,,0.00,323.00,VWS V14.00,2013-03-08 21:15:00,
2013-03-08 15:30:00,70.0,63.2,30.03,East,90,7.0,19.0,79,0.00,,,0.00,338.00,VWS V14.00,2013-03-08 21:30:00,
2013-03-08 15:45:00,69.1,62.7,30.03,East,90,7.0,14.0,80,0.00,,,0.00,185.00,VWS V14.00,2013-03-08 21:45:00,
2013-03-08 16:00:00,68.9,62.8,30.02,East,90,6.0,15.0,81,0.00,,,0.00,188.00,VWS V14.00,2013-03-08 22:00:00,
2013-03-08 16:15:00,69.1,63.4,30.04,East,90,6.0,14.0,82,0.00,,,0.00,299.00,VWS V14.00,2013-03-08 22:15:00,
2013-03-08 16:30:00,68.9,62.8,30.04,East,90,5.0,13.0,81,0.00,,,0.00,189.00,VWS V14.00,2013-03-08 22:30:00,
2013-03-08 16:45:00,68.3,62.6,30.05,East,90,5.0,12.0,82,0.00,,,0.00,88.00,VWS V14.00,2013-03-08 22:45:00,
2013-03-08 17:00:00,68.2,62.5,30.06,East,90,4.0,12.0,82,0.00,,,0.00,109.00,VWS V14.00,2013-03-08 23:00:00,
2013-03-08 17:15:00,67.9,62.2,30.06,East,90,5.0,11.0,82,0.00,,,0.00,88.00,VWS V14.00,2013-03-08 23:15:00,
2013-03-08 17:30:00,67.4,62.4,30.05,East,90,4.0,10.0,84,0.00,,,0.00,61.00,VWS V14.00,2013-03-08 23:30:00,
2013-03-08 17:45:00,66.9,61.9,30.05,East,90,4.0,9.0,84,0.00,,,0.00,34.00,VWS V14.00,2013-03-08 23:45:00,
2013-03-08 18:03:00,66.4,61.8,30.05,East,90,4.0,10.0,85,0.00,,,0.00,21.00,VWS V14.00,2013-03-09 00:03:00,
2013-03-08 18:15:00,66.1,61.8,30.03,East,91,5.0,9.0,86,0.00,,,0.00,5.00,VWS V14.00,2013-03-09 00:15:00,
2013-03-08 18:30:00,65.8,61.5,30.04,ESE,114,5.0,11.0,86,0.00,,,0.00,0.00,VWS V14.00,2013-03-09 00:30:00,
2013-03-08 18:45:00,65.7,61.7,30.02,East,90,5.0,12.0,87,0.00,,,0.00,0.00,VWS V14.00,2013-03-09 00:45:00,
2013-03-08 19:00:00,65.7,61.7,30.02,East,90,5.0,11.0,87,0.00,,,0.00,0.00,VWS V14.00,2013-03-09 01:00:00,
2013-03-08 19:15:00,65.7,61.7,30.01,East,90,5.0,13.0,87,0.00,,,0.00,0.00,VWS V14.00,2013-03-09 01:15:00,
2013-03-08 19:30:00,65.5,61.5,30.01,East,90,5.0,14.0,87,0.00,,,0.00,0.00,VWS V14.00,2013-03-09 01:30:00,
2013-03-08 19:45:00,65.3,61.3,30.01,East,90,6.0,13.0,87,0.00,,,0.00,0.00,VWS V14.00,2013-03-09 01:45:00,
2013-03-08 20:00:00,65.1,61.5,30.01,East,90,6.0,14.0,88,0.00,,,0.00,0.00,VWS V14.00,2013-03-09 02:00:00,
2013-03-08 20:15:00,64.9,61.3,30.01,East,90,6.0,14.0,88,0.00,,,0.00,0.00,VWS V14.00,2013-03-09 02:15:00,
2013-03-08 20:30:00,64.9,61.3,30.02,East,90,6.0,12.0,88,0.00,,,0.00,0.00,VWS V14.00,2013-03-09 02:30:00,
2013-03-08 20:45:00,64.9,61.6,30.01,East,90,7.0,15.0,89,0.00,,,0.00,0.00,VWS V14.00,2013-03-09 02:45:00,
2013-03-08 21:00:00,64.9,61.6,30.01,East,90,6.0,14.0,89,0.00,,,0.00,0.00,VWS V14.00,2013-03-09 03:00:00,
2013-03-08 21:15:00,65.0,61.7,30.01,East,90,6.0,14.0,89,0.00,,,0.00,0.00,VWS V14.00,2013-03-09 03:15:00,
2013-03-08 21:30:00,64.8,61.5,30.01,ESE,112,6.0,13.0,89,0.00,,,0.00,0.00,VWS V14.00,2013-03-09 03:30:00,
2013-03-08 21:45:00,64.7,61.4,30.02,East,90,4.0,12.0,89,0.00,,,0.00,0.00,VWS V14.00,2013-03-09 03:45:00,
2013-03-08 22:00:00,64.8,61.8,30.01,ESE,112,4.0,9.0,90,0.00,,,0.00,0.00,VWS V14.00,2013-03-09 04:00:00,
2013-03-08 22:15:00,64.9,61.6,30.01,East,90,4.0,10.0,89,0.00,,,0.00,0.00,VWS V14.00,2013-03-09 04:15:00,
2013-03-08 22:30:00,65.2,61.9,30.01,East,90,5.0,10.0,89,0.00,,,0.00,0.00,VWS V14.00,2013-03-09 04:30:00,
2013-03-08 22:45:00,65.2,61.9,30.01,East,90,3.0,9.0,89,0.00,,,0.00,0.00,VWS V14.00,2013-03-09 04:45:00,
2013-03-08 23:00:00,65.3,62.0,30.01,ESE,112,3.0,9.0,89,0.00,,,0.00,0.00,VWS V14.00,2013-03-09 05:00:00,
2013-03-08 23:15:00,65.3,62.0,30.01,ESE,112,3.0,6.0,89,0.00,,,0.00,0.00,VWS V14.00,2013-03-09 05:15:00,
2013-03-08 23:30:00,65.3,62.3,30.00,ESE,112,3.0,9.0,90,0.00,,,0.00,0.00,VWS V14.00,2013-03-09 05:30:00,
2013-03-08 23:45:00,65.2,62.2,30.00,ESE,112,2.0,7.0,90,0.00,,,0.00,0.00,VWS V14.00,2013-03-09 05:45:00,